Авиационная погода в Бургасе

Регион: 
Погода METAR: 
LBBG 221800Z 01003KT 340V040 9999 FEW045 M02/M09 Q1017 NOSIG
Время наблюдения
2022-01-22T18:00:00Z
Температура C
-2.0
Точка росы
-9.0
Направление ветра
10
Скорость ветра (узлы)
3
Метео видимость
6.21
Облачность
FEW
Нижняя граница облачности (футы)
4500
Явления погоды
Условия полета
VFR
FEW – незначительная облачность;